createdAt,value
2018-11-21T00:02:08.698Z,100439.64
2018-11-21T00:04:56.397Z,100435.70
2018-11-21T00:07:37.677Z,100441.19
2018-11-21T00:10:25.983Z,100441.47
2018-11-21T00:13:06.904Z,100447.94
2018-11-21T00:15:55.241Z,100452.02
2018-11-21T00:18:36.517Z,100442.16
2018-11-21T00:21:24.849Z,100452.17
2018-11-21T00:24:06.497Z,100452.39
2018-11-21T00:26:54.773Z,100450.85
2018-11-21T00:29:35.849Z,100454.78
2018-11-21T00:32:25.407Z,100442.98
2018-11-21T00:35:12.678Z,100442.22
2018-11-21T00:37:54.064Z,100440.45
2018-11-21T00:41:01.955Z,100443.51
2018-11-21T00:44:02.490Z,100449.86
2018-11-21T00:51:02.450Z,100445.73
2018-11-21T00:57:24.533Z,100440.47
2018-11-21T01:12:37.268Z,100452.16
2018-11-21T01:26:04.811Z,100458.11
2018-11-21T01:32:00.954Z,100456.86
2018-11-21T01:34:49.446Z,100459.98
2018-11-21T01:37:30.888Z,100462.83
2018-11-21T01:40:19.198Z,100460.83
2018-11-21T01:43:00.686Z,100468.61
2018-11-21T01:45:51.638Z,100468.98
2018-11-21T01:48:33.229Z,100468.36
2018-11-21T01:51:21.548Z,100475.50
2018-11-21T01:54:02.571Z,100470.01
2018-11-21T01:56:52.207Z,100465.17
2018-11-21T01:59:33.171Z,100465.82
2018-11-21T02:09:43.337Z,100471.33
2018-11-21T02:12:50.985Z,100479.83
2018-11-21T02:15:38.824Z,100470.29
2018-11-21T02:19:02.255Z,100462.83
2018-11-21T02:31:12.991Z,100463.02
2018-11-21T02:47:00.156Z,100461.48
2018-11-21T02:52:50.251Z,100465.84
2018-11-21T02:56:12.165Z,100466.04
2018-11-21T02:58:56.450Z,100475.50
2018-11-21T03:01:45.482Z,100466.50
2018-11-21T03:04:33.334Z,100476.14
2018-11-21T03:10:23.118Z,100483.80
2018-11-21T03:13:11.399Z,100484.30
2018-11-21T03:15:53.084Z,100480.66
2018-11-21T03:22:08.912Z,100475.02
2018-11-21T03:47:44.713Z,100479.17
2018-11-21T03:56:56.559Z,100481.82
2018-11-21T03:59:38.117Z,100485.14
2018-11-21T04:02:26.702Z,100484.50
2018-11-21T04:05:08.255Z,100479.50
2018-11-21T04:07:56.561Z,100483.48
2018-11-21T04:10:38.201Z,100479.68
2018-11-21T04:13:26.643Z,100483.14
2018-11-21T04:16:07.879Z,100484.27
2018-11-21T04:19:31.422Z,100482.31
2018-11-21T04:25:15.539Z,100491.79
2018-11-21T04:31:07.279Z,100504.41
2018-11-21T04:37:13.771Z,100508.72
2018-11-21T04:44:21.865Z,100511.56
2018-11-21T04:47:15.522Z,100504.27
2018-11-21T04:50:05.660Z,100506.92
2018-11-21T05:02:48.377Z,100516.66
2018-11-21T05:05:24.374Z,100506.39
2018-11-21T05:08:39.036Z,100509.53
2018-11-21T05:22:10.705Z,100526.39
2018-11-21T05:25:01.670Z,100533.36
2018-11-21T05:27:50.214Z,100545.48
2018-11-21T05:30:31.240Z,100546.98
2018-11-21T05:33:19.883Z,100545.64
2018-11-21T05:36:02.604Z,100551.81
2018-11-21T05:38:51.026Z,100552.59
2018-11-21T05:41:22.871Z,100558.41
2018-11-21T05:43:52.254Z,100562.85
2018-11-21T05:46:23.856Z,100568.36
2018-11-21T05:48:53.163Z,100567.84
2018-11-21T05:51:27.873Z,100569.04
2018-11-21T05:54:37.995Z,100569.42
2018-11-21T05:57:10.199Z,100574.55
2018-11-21T05:59:50.930Z,100576.72
2018-11-21T06:02:23.149Z,100581.91
2018-11-21T06:04:55.143Z,100590.73
2018-11-21T06:07:27.681Z,100583.89
2018-11-21T06:09:59.323Z,100594.86
2018-11-21T06:12:28.509Z,100590.56
2018-11-21T06:14:57.833Z,100591.22
2018-11-21T06:17:26.985Z,100591.33
2018-11-21T06:19:56.255Z,100595.48
2018-11-21T06:22:30.653Z,100602.70
2018-11-21T06:25:00.931Z,100596.76
2018-11-21T06:31:01.819Z,100610.25
2018-11-21T06:33:32.396Z,100615.21
2018-11-21T06:36:01.606Z,100620.70
2018-11-21T06:38:39.348Z,100627.66
2018-11-21T06:41:10.915Z,100628.03
2018-11-21T06:43:43.879Z,100627.08
2018-11-21T06:46:13.194Z,100624.58
2018-11-21T06:48:42.335Z,100639.55
2018-11-21T06:51:11.658Z,100644.27
2018-11-21T06:53:40.936Z,100642.58
2018-11-21T06:56:10.296Z,100644.63
2018-11-21T06:58:39.478Z,100641.92
2018-11-21T07:01:08.750Z,100646.41
2018-11-21T07:03:37.894Z,100656.88
2018-11-21T07:06:07.234Z,100660.72
2018-11-21T07:08:36.514Z,100662.82
2018-11-21T07:11:06.123Z,100665.70
2018-11-21T07:13:35.318Z,100663.47
2018-11-21T07:16:04.558Z,100660.05
2018-11-21T07:18:33.758Z,100659.89
2018-11-21T07:21:02.973Z,100668.22
2018-11-21T07:23:32.198Z,100666.86
2018-11-21T07:26:01.676Z,100666.27
2018-11-21T07:28:30.936Z,100665.23
2018-11-21T07:31:02.308Z,100676.42
2018-11-21T07:33:31.496Z,100682.73
2018-11-21T07:36:00.653Z,100680.55
2018-11-21T07:38:30.209Z,100683.22
2018-11-21T07:40:59.512Z,100685.71
2018-11-21T07:43:28.696Z,100691.36
2018-11-21T07:45:57.842Z,100687.23
2018-11-21T07:48:30.075Z,100682.20
2018-11-21T07:51:02.436Z,100684.87
2018-11-21T07:53:28.638Z,100686.72
2018-11-21T07:55:57.786Z,100687.89
2018-11-21T07:58:27.576Z,100687.94
2018-11-21T08:01:20.404Z,100698.72
2018-11-21T08:03:54.894Z,100697.05
2018-11-21T08:06:42.103Z,100696.25
2018-11-21T08:09:30.595Z,100700.43
2018-11-21T08:13:21.903Z,100705.96
2018-11-21T08:16:21.985Z,100710.77
2018-11-21T08:19:29.022Z,100700.94
2018-11-21T08:22:29.057Z,100709.95
2018-11-21T08:25:30.924Z,100703.62
2018-11-21T08:28:21.131Z,100706.62
2018-11-21T08:31:02.063Z,100711.78
2018-11-21T08:37:26.471Z,100706.28
2018-11-21T08:40:07.149Z,100710.30
2018-11-21T08:42:54.241Z,100708.16
2018-11-21T08:45:38.929Z,100715.29
2018-11-21T08:48:26.168Z,100715.28
2018-11-21T08:51:07.046Z,100722.98
2018-11-21T08:53:54.161Z,100717.48
2018-11-21T08:56:36.164Z,100720.13
2018-11-21T09:00:01.486Z,100729.11
2018-11-21T09:02:41.847Z,100725.30
2018-11-21T09:05:29.541Z,100722.64
2018-11-21T09:08:09.668Z,100732.08
2018-11-21T09:10:56.786Z,100724.66
2018-11-21T09:13:37.317Z,100724.98
2018-11-21T09:16:24.662Z,100735.95
2018-11-21T09:19:05.654Z,100737.97
2018-11-21T09:25:35.125Z,100752.95
2018-11-21T09:28:22.264Z,100753.14
2018-11-21T09:31:02.487Z,100756.64
2018-11-21T09:33:49.668Z,100749.30
2018-11-21T09:36:30.287Z,100748.13
2018-11-21T09:40:14.895Z,100754.45
2018-11-21T09:42:57.521Z,100755.94
2018-11-21T09:45:37.879Z,100747.12
2018-11-21T09:48:05.851Z,100756.77
2018-11-21T09:50:53.183Z,100756.77
2018-11-21T09:53:33.727Z,100755.92
2018-11-21T09:56:21.255Z,100762.74
2018-11-21T09:59:02.069Z,100756.59
2018-11-21T10:02:28.343Z,100763.77
2018-11-21T10:05:09.179Z,100762.39
2018-11-21T10:08:03.191Z,100772.88
2018-11-21T10:10:43.737Z,100762.30
2018-11-21T10:13:31.649Z,100761.30
2018-11-21T10:16:12.236Z,100764.63
2018-11-21T10:19:00.797Z,100770.59
2018-11-21T10:21:41.891Z,100766.97
2018-11-21T10:24:29.288Z,100764.98
2018-11-21T10:27:09.566Z,100769.61
2018-11-21T10:29:56.923Z,100755.98
2018-11-21T10:32:37.687Z,100757.36
2018-11-21T10:35:25.064Z,100757.78
2018-11-21T10:38:05.165Z,100763.97
2018-11-21T10:40:52.339Z,100767.03
2018-11-21T10:43:33.605Z,100763.33
2018-11-21T10:46:20.742Z,100766.35
2018-11-21T10:49:08.113Z,100762.69
2018-11-21T10:51:47.968Z,100758.86
2018-11-21T10:54:35.489Z,100759.19
2018-11-21T10:57:16.256Z,100756.05
2018-11-21T11:00:05.298Z,100763.72
2018-11-21T11:06:16.640Z,100767.41
2018-11-21T11:09:45.457Z,100769.23
2018-11-21T11:12:52.177Z,100773.20
2018-11-21T11:15:58.869Z,100771.31
2018-11-21T11:18:59.010Z,100771.35
2018-11-21T11:22:05.738Z,100769.85
2018-11-21T11:25:06.100Z,100768.38
2018-11-21T11:28:14.785Z,100771.88
2018-11-21T11:31:04.020Z,100770.03
2018-11-21T11:34:11.955Z,100772.72
2018-11-21T11:37:13.727Z,100772.36
2018-11-21T11:40:20.608Z,100779.89
2018-11-21T11:43:20.641Z,100784.34
2018-11-21T11:46:27.554Z,100773.38
2018-11-21T11:49:27.628Z,100784.72
2018-11-21T11:52:34.332Z,100786.54
2018-11-21T11:55:41.436Z,100780.18
2018-11-21T11:58:48.238Z,100775.50
2018-11-21T12:01:48.658Z,100781.48
2018-11-21T12:04:49.114Z,100785.45
2018-11-21T12:07:56.194Z,100789.99
2018-11-21T12:10:56.021Z,100790.81
2018-11-21T12:14:02.910Z,100787.72
2018-11-21T12:17:04.237Z,100782.77
2018-11-21T12:20:06.461Z,100781.88
2018-11-21T12:23:06.741Z,100775.73
2018-11-21T12:26:13.457Z,100777.88
2018-11-21T12:29:09.834Z,100784.73
2018-11-21T12:32:10.427Z,100776.72
2018-11-21T12:35:11.144Z,100778.67
2018-11-21T12:38:18.843Z,100779.57
2018-11-21T12:41:17.620Z,100773.28
2018-11-21T12:44:24.769Z,100769.27
2018-11-21T12:47:26.265Z,100775.27
2018-11-21T12:50:33.216Z,100777.75
2018-11-21T12:53:23.623Z,100773.72
2018-11-21T12:56:30.689Z,100767.25
2018-11-21T12:59:26.213Z,100774.28
2018-11-21T13:02:33.100Z,100775.22
2018-11-21T13:05:38.453Z,100774.43
2018-11-21T13:08:45.734Z,100760.64
2018-11-21T13:11:46.059Z,100766.47
2018-11-21T13:14:52.940Z,100772.95
2018-11-21T13:17:53.054Z,100766.66
2018-11-21T13:20:59.860Z,100766.64
2018-11-21T13:23:52.559Z,100773.49
2018-11-21T13:26:59.500Z,100771.33
2018-11-21T13:30:06.267Z,100771.68
2018-11-21T13:33:13.218Z,100774.33
2018-11-21T13:36:20.117Z,100779.92
2018-11-21T13:39:46.560Z,100786.75
2018-11-21T13:42:53.539Z,100778.94
2018-11-21T13:46:00.440Z,100777.30
2018-11-21T13:49:00.707Z,100781.77
2018-11-21T13:51:55.187Z,100780.55
2018-11-21T13:54:55.720Z,100781.93
2018-11-21T13:57:36.518Z,100781.23
2018-11-21T14:00:23.674Z,100775.25
2018-11-21T14:03:04.753Z,100782.56
2018-11-21T14:05:52.332Z,100787.56
2018-11-21T14:08:33.533Z,100788.08
2018-11-21T14:12:11.649Z,100785.41
2018-11-21T14:14:08.748Z,100790.75
2018-11-21T14:17:06.345Z,100787.16
2018-11-21T14:20:14.158Z,100799.14
2018-11-21T14:23:11.753Z,100803.98
2018-11-21T14:25:56.772Z,100799.30
2018-11-21T14:28:33.413Z,100799.84
2018-11-21T14:31:25.178Z,100798.84
2018-11-21T14:34:08.348Z,100801.96
2018-11-21T14:37:00.995Z,100797.19
2018-11-21T14:39:45.138Z,100811.31
2018-11-21T14:50:30.855Z,100811.89
2018-11-21T15:02:16.728Z,100822.45
2018-11-21T15:05:06.624Z,100828.83
2018-11-21T15:07:48.497Z,100825.28
2018-11-21T15:10:55.455Z,100828.80
2018-11-21T15:13:35.901Z,100829.77
2018-11-21T15:16:23.515Z,100831.06
2018-11-21T15:19:04.391Z,100833.60
2018-11-21T15:21:51.501Z,100839.67
2018-11-21T15:27:46.627Z,100844.19
2018-11-21T15:30:35.788Z,100837.02
2018-11-21T15:33:16.089Z,100835.52
2018-11-21T15:36:03.324Z,100838.44
2018-11-21T15:38:43.975Z,100837.95
2018-11-21T15:41:31.353Z,100844.48
2018-11-21T15:44:12.391Z,100850.78
2018-11-21T15:46:59.522Z,100848.13
2018-11-21T15:49:40.534Z,100847.41
2018-11-21T15:52:27.676Z,100852.04
2018-11-21T15:55:10.652Z,100855.34
2018-11-21T15:57:57.843Z,100853.48
2018-11-21T16:00:38.854Z,100856.31
2018-11-21T16:03:26.026Z,100861.44
2018-11-21T16:06:06.730Z,100857.48
2018-11-21T16:08:53.862Z,100867.06
2018-11-21T16:11:33.920Z,100868.45
2018-11-21T16:14:21.043Z,100864.66
2018-11-21T16:17:01.551Z,100867.30
2018-11-21T16:19:49.540Z,100864.11
2018-11-21T16:22:29.650Z,100876.74
2018-11-21T16:25:18.227Z,100877.75
2018-11-21T16:27:59.365Z,100882.27
2018-11-21T16:30:46.815Z,100883.03
2018-11-21T16:33:27.603Z,100887.03
2018-11-21T16:36:14.985Z,100884.69
2018-11-21T16:38:55.413Z,100887.87
2018-11-21T16:41:42.583Z,100887.76
2018-11-21T16:44:22.660Z,100882.59
2018-11-21T16:47:09.950Z,100893.08
2018-11-21T16:49:57.106Z,100900.55
2018-11-21T16:52:37.738Z,100895.34
2018-11-21T16:55:25.800Z,100893.56
2018-11-21T16:58:06.084Z,100901.19
2018-11-21T17:00:53.669Z,100907.86
2018-11-21T17:03:34.705Z,100904.94
2018-11-21T17:06:22.169Z,100903.16
2018-11-21T17:09:02.662Z,100906.31
2018-11-21T17:11:50.090Z,100912.33
2018-11-21T17:14:30.435Z,100914.87
2018-11-21T17:17:17.658Z,100914.19
2018-11-21T17:19:58.733Z,100915.84
2018-11-21T17:22:47.356Z,100920.00
2018-11-21T17:25:29.558Z,100929.33
2018-11-21T17:28:16.894Z,100921.45
2018-11-21T17:30:48.834Z,100923.06
2018-11-21T17:33:16.460Z,100923.38
2018-11-21T17:35:44.056Z,100922.26
2018-11-21T17:38:11.718Z,100931.94
2018-11-21T17:40:41.046Z,100923.58
2018-11-21T17:43:08.661Z,100930.56
2018-11-21T17:45:36.218Z,100938.71
2018-11-21T17:48:03.888Z,100934.56
2018-11-21T17:50:31.593Z,100941.48
2018-11-21T17:53:00.798Z,100938.38
2018-11-21T17:55:31.394Z,100936.85
2018-11-21T17:57:59.095Z,100940.47
2018-11-21T18:00:30.457Z,100940.77
2018-11-21T18:02:58.228Z,100944.52
2018-11-21T18:05:30.787Z,100944.23
2018-11-21T18:07:58.315Z,100942.97
2018-11-21T18:10:29.832Z,100947.39
2018-11-21T18:12:57.450Z,100951.77
2018-11-21T18:15:25.064Z,100955.86
2018-11-21T18:17:52.664Z,100953.79
2018-11-21T18:20:20.656Z,100960.39
2018-11-21T18:22:48.765Z,100954.59
2018-11-21T18:25:18.059Z,100951.55
2018-11-21T18:27:48.690Z,100953.84
2018-11-21T18:30:17.871Z,100958.09
2018-11-21T18:32:45.963Z,100956.13
2018-11-21T18:35:14.846Z,100945.21
2018-11-21T18:37:43.116Z,100954.47
2018-11-21T18:40:22.336Z,100956.77
2018-11-21T18:42:49.947Z,100955.85
2018-11-21T18:45:32.899Z,100960.11
2018-11-21T18:48:00.512Z,100961.82
2018-11-21T18:50:28.179Z,100964.11
2018-11-21T18:52:56.925Z,100960.29
2018-11-21T18:55:27.905Z,100965.81
2018-11-21T18:58:31.053Z,100973.76
2018-11-21T19:00:58.649Z,100978.06
2018-11-21T19:03:26.253Z,100982.44
2018-11-21T19:05:53.949Z,100980.30
2018-11-21T19:08:22.431Z,100980.25
2018-11-21T19:10:50.741Z,100976.69
2018-11-21T19:13:18.549Z,100978.55
2018-11-21T19:15:46.190Z,100981.70
2018-11-21T19:18:13.803Z,100986.91
2018-11-21T19:20:41.401Z,100987.98
2018-11-21T19:23:09.049Z,100977.44
2018-11-21T19:25:36.628Z,100980.20
2018-11-21T19:28:04.332Z,100980.63
2018-11-21T19:30:32.083Z,100982.17
2018-11-21T19:33:02.504Z,100981.80
2018-11-21T19:35:30.086Z,100976.84
2018-11-21T19:37:57.776Z,100983.66
2018-11-21T19:40:25.410Z,100985.42
2018-11-21T19:42:53.044Z,100984.56
2018-11-21T19:45:20.718Z,100988.77
2018-11-21T19:47:48.582Z,100993.51
2018-11-21T19:50:17.026Z,100997.94
2018-11-21T19:52:45.427Z,100991.75
2018-11-21T19:55:15.148Z,100993.83
2018-11-21T19:57:43.118Z,100988.35
2018-11-21T20:00:17.186Z,100994.90
2018-11-21T20:02:45.389Z,100996.03
2018-11-21T20:05:13.171Z,100993.13
2018-11-21T20:07:40.927Z,100994.15
2018-11-21T20:10:09.289Z,100988.09
2018-11-21T20:12:40.037Z,100985.09
2018-11-21T20:15:07.828Z,100988.35
2018-11-21T20:17:35.272Z,100988.77
2018-11-21T20:20:03.319Z,100984.03
2018-11-21T20:22:31.003Z,100987.75
2018-11-21T20:25:01.172Z,100975.99
2018-11-21T20:27:28.818Z,100974.69
2018-11-21T20:29:56.530Z,100975.22
2018-11-21T20:32:24.102Z,100983.05
2018-11-21T20:34:51.736Z,100989.66
2018-11-21T20:37:19.392Z,100985.72
2018-11-21T20:39:47.077Z,100980.49
2018-11-21T20:42:14.715Z,100982.56
2018-11-21T20:44:42.484Z,100983.56
2018-11-21T20:47:10.175Z,100972.61
2018-11-21T20:49:37.878Z,100982.56
2018-11-21T20:52:05.799Z,100978.06
2018-11-21T20:54:33.466Z,100981.19
2018-11-21T20:57:01.085Z,100982.55
2018-11-21T20:59:28.873Z,100983.47
2018-11-21T21:01:56.635Z,100985.20
2018-11-21T21:04:27.200Z,100984.64
2018-11-21T21:06:54.923Z,100988.97
2018-11-21T21:09:22.521Z,100985.18
2018-11-21T21:11:50.137Z,100992.67
2018-11-21T21:14:17.743Z,100992.66
2018-11-21T21:16:45.357Z,100984.11
2018-11-21T21:19:12.999Z,100984.59
2018-11-21T21:21:40.607Z,100985.46
2018-11-21T21:24:08.193Z,100983.64
2018-11-21T21:26:35.789Z,100989.81
2018-11-21T21:29:03.567Z,100983.83
2018-11-21T21:31:31.208Z,100985.53
2018-11-21T21:33:58.826Z,100991.67
2018-11-21T21:36:26.455Z,100987.95
2018-11-21T21:38:54.047Z,100980.45
2018-11-21T21:41:21.603Z,100984.03
2018-11-21T21:43:49.200Z,100981.95
2018-11-21T21:46:16.830Z,100995.26
2018-11-21T21:48:44.420Z,100993.75
2018-11-21T21:51:12.072Z,100988.67
2018-11-21T21:53:39.634Z,100988.98
2018-11-21T21:56:07.213Z,100984.39
2018-11-21T21:58:34.801Z,100989.29
2018-11-21T22:01:02.366Z,100989.52
2018-11-21T22:03:29.994Z,100987.79
2018-11-21T22:05:57.588Z,100994.14
2018-11-21T22:08:25.226Z,101003.00
2018-11-21T22:10:52.838Z,101001.52
2018-11-21T22:13:20.409Z,101005.09
2018-11-21T22:15:48.149Z,101001.92
2018-11-21T22:18:15.984Z,101010.91
2018-11-21T22:20:43.574Z,101004.55
2018-11-21T22:23:11.190Z,101004.08
2018-11-21T22:25:38.794Z,101004.88
2018-11-21T22:28:06.480Z,101002.19
2018-11-21T22:30:34.140Z,101006.03
2018-11-21T22:33:01.905Z,101004.95
2018-11-21T22:35:33.438Z,101000.34
2018-11-21T22:38:01.019Z,101001.50
2018-11-21T22:40:28.843Z,101009.42
2018-11-21T22:42:56.453Z,101003.00
2018-11-21T22:45:24.217Z,101008.38
2018-11-21T22:47:51.788Z,101000.86
2018-11-21T22:50:23.541Z,101000.86
2018-11-21T22:52:51.249Z,101002.32
2018-11-21T22:55:19.171Z,101002.98
2018-11-21T22:57:47.303Z,100997.70
2018-11-21T23:00:17.305Z,101002.74
2018-11-21T23:02:44.870Z,100997.27
2018-11-21T23:05:12.475Z,100998.59
2018-11-21T23:07:41.155Z,101010.36
2018-11-21T23:10:11.443Z,101007.76
2018-11-21T23:12:38.552Z,101004.80
2018-11-21T23:15:07.295Z,101004.19
2018-11-21T23:17:34.992Z,101009.42
2018-11-21T23:20:03.160Z,101005.81
2018-11-21T23:22:32.582Z,101008.58
2018-11-21T23:24:58.386Z,101010.05
2018-11-21T23:27:25.967Z,101004.98
2018-11-21T23:29:53.529Z,101003.53
2018-11-21T23:32:21.128Z,101009.39
2018-11-21T23:34:48.717Z,101012.78
2018-11-21T23:37:16.348Z,101015.05
2018-11-21T23:39:43.943Z,101016.31
2018-11-21T23:42:11.634Z,101013.63
2018-11-21T23:44:39.216Z,101016.06
2018-11-21T23:47:06.808Z,101025.08
2018-11-21T23:49:34.396Z,101019.91
2018-11-21T23:52:04.706Z,101028.28
2018-11-21T23:54:32.478Z,101019.36
2018-11-21T23:57:15.887Z,101026.55
2018-11-21T23:59:27.738Z,101027.55
